Time;durP1;ratioP1;P1;durP2;ratioP2;P2;SDS_P1;SDS_P2;PMS_P1;PMS_P2;Temp;Humidity;BMP_temperature;BMP_pressure;BME280_temperature;BME280_humidity;BME280_pressure;Samples;Min_cycle;Max_cycle;Signal;HPM_P1;HPM_P2
2022/03/07 00:01:58;;;;;;;15.50;9.80;;;;;;;;;;4934678;29;20603;-88
2022/03/07 00:05:02;;;;;;;14.87;10.37;;;;;;;;;;4945670;29;20604;-88
2022/03/07 00:08:07;;;;;;;13.23;9.90;;;;;;;;;;4934295;29;20599;-88
2022/03/07 00:11:12;;;;;;;13.80;10.43;;;;;;;;;;4923377;29;21174;-89
2022/03/07 00:14:16;;;;;;;13.83;10.03;;;;;;;;;;4922829;29;20556;-88
2022/03/07 00:17:20;;;;;;;12.67;9.83;;;;;;;;;;4934104;29;20658;-88
2022/03/07 00:20:24;;;;;;;13.00;9.50;;;;;;;;;;4934637;29;20596;-88
2022/03/07 00:23:28;;;;;;;12.27;9.37;;;;;;;;;;4912864;29;20549;-88
2022/03/07 00:26:33;;;;;;;12.23;9.53;;;;;;;;;;4945335;29;20982;-88
2022/03/07 00:29:37;;;;;;;13.93;9.83;;;;;;;;;;4893976;29;20538;-89
2022/03/07 00:32:42;;;;;;;11.53;9.43;;;;;;;;;;4923967;29;20599;-88
2022/03/07 00:35:47;;;;;;;12.03;9.17;;;;;;;;;;4922832;29;20561;-89
2022/03/07 00:38:51;;;;;;;16.00;10.23;;;;;;;;;;4933850;29;20596;-88
2022/03/07 00:41:56;;;;;;;13.50;8.90;;;;;;;;;;4923054;29;20643;-88
2022/03/07 00:45:02;;;;;;;12.90;9.53;;;;;;;;;;4944052;29;20616;-88
2022/03/07 00:48:06;;;;;;;12.67;8.83;;;;;;;;;;5086743;23;20672;-86
2022/03/07 00:51:10;;;;;;;11.73;8.60;;;;;;;;;;5039595;28;20589;-85
2022/03/07 00:54:14;;;;;;;13.70;9.13;;;;;;;;;;5040069;28;20621;-85
2022/03/07 00:57:18;;;;;;;12.90;8.87;;;;;;;;;;5018946;28;20973;-85
2022/03/07 01:00:22;;;;;;;11.43;8.17;;;;;;;;;;5024214;28;20627;-85
2022/03/07 01:03:27;;;;;;;13.13;8.47;;;;;;;;;;5011482;28;20528;-86
2022/03/07 01:06:31;;;;;;;13.27;8.57;;;;;;;;;;4999856;28;20986;-86
2022/03/07 01:09:35;;;;;;;10.23;8.30;;;;;;;;;;5031173;28;20946;-85
2022/03/07 01:12:40;;;;;;;11.90;8.67;;;;;;;;;;5030904;28;20606;-86
2022/03/07 01:15:44;;;;;;;11.60;8.47;;;;;;;;;;5019994;28;20535;-86
2022/03/07 01:18:48;;;;;;;11.80;8.40;;;;;;;;;;5020118;28;21100;-86
2022/03/07 01:21:53;;;;;;;9.90;7.67;;;;;;;;;;5030653;28;20598;-86
2022/03/07 01:24:57;;;;;;;9.87;7.60;;;;;;;;;;5042399;28;21073;-86
2022/03/07 01:28:02;;;;;;;8.13;7.00;;;;;;;;;;5031368;28;20954;-85
2022/03/07 01:31:08;;;;;;;11.47;7.53;;;;;;;;;;5019459;28;20610;-86
2022/03/07 01:34:13;;;;;;;9.73;6.70;;;;;;;;;;5018764;28;20614;-86
2022/03/07 01:37:17;;;;;;;12.33;6.00;;;;;;;;;;5030951;28;20634;-86
2022/03/07 01:40:21;;;;;;;8.90;5.27;;;;;;;;;;5053153;28;20626;-85
2022/03/07 01:43:26;;;;;;;8.07;5.83;;;;;;;;;;5031531;28;21077;-84
2022/03/07 01:46:31;;;;;;;8.13;5.90;;;;;;;;;;5030463;28;21234;-84
2022/03/07 01:49:35;;;;;;;7.40;5.67;;;;;;;;;;5031480;28;20586;-83
2022/03/07 01:52:42;;;;;;;7.20;5.80;;;;;;;;;;5043103;28;20867;-84
2022/03/07 01:55:48;;;;;;;7.30;5.90;;;;;;;;;;5042162;28;20598;-84
2022/03/07 01:58:52;;;;;;;8.87;6.17;;;;;;;;;;5030468;28;21164;-86
2022/03/07 02:01:58;;;;;;;10.70;5.77;;;;;;;;;;5022887;28;21142;-86
2022/03/07 02:05:06;;;;;;;8.63;5.63;;;;;;;;;;5005279;28;20607;-85
2022/03/07 02:08:11;;;;;;;7.10;5.63;;;;;;;;;;5042403;28;20622;-85
2022/03/07 02:11:25;;;;;;;12.07;5.83;;;;;;;;;;5030903;28;20531;-86
2022/03/07 02:14:30;;;;;;;9.20;5.23;;;;;;;;;;5019412;28;20594;-86
2022/03/07 02:17:36;;;;;;;8.67;5.23;;;;;;;;;;5029525;28;20646;-86
2022/03/07 02:20:41;;;;;;;6.63;5.10;;;;;;;;;;5010063;28;20635;-86
2022/03/07 02:23:45;;;;;;;7.27;5.00;;;;;;;;;;5022746;28;20595;-85
2022/03/07 02:26:58;;;;;;;6.40;4.80;;;;;;;;;;5030349;28;20622;-86
2022/03/07 02:30:05;;;;;;;6.50;4.70;;;;;;;;;;5022723;28;20587;-85
2022/03/07 02:33:12;;;;;;;7.67;5.30;;;;;;;;;;5003987;28;20579;-86
2022/03/07 02:36:17;;;;;;;6.27;5.00;;;;;;;;;;5029982;28;20618;-85
2022/03/07 02:39:21;;;;;;;6.63;5.33;;;;;;;;;;5034100;28;21064;-86
2022/03/07 02:42:26;;;;;;;8.43;4.77;;;;;;;;;;5033349;28;20957;-86
2022/03/07 02:45:31;;;;;;;10.07;5.30;;;;;;;;;;5022489;28;20583;-86
2022/03/07 02:48:35;;;;;;;6.67;4.70;;;;;;;;;;5022730;28;20598;-86
2022/03/07 02:51:39;;;;;;;6.23;5.17;;;;;;;;;;5014841;28;20591;-85
2022/03/07 02:54:43;;;;;;;6.43;4.90;;;;;;;;;;5027021;28;20586;-86
2022/03/07 02:57:47;;;;;;;7.07;5.20;;;;;;;;;;5014080;28;21176;-85
2022/03/07 03:00:52;;;;;;;6.87;5.07;;;;;;;;;;5017517;28;20622;-86
2022/03/07 03:03:55;;;;;;;7.67;4.87;;;;;;;;;;5021453;28;21156;-86
2022/03/07 03:07:00;;;;;;;7.10;4.60;;;;;;;;;;5044486;28;20614;-86
2022/03/07 03:10:05;;;;;;;6.43;4.43;;;;;;;;;;5013605;28;20591;-85
2022/03/07 03:13:09;;;;;;;7.90;5.67;;;;;;;;;;5012995;28;20587;-86
2022/03/07 03:16:13;;;;;;;6.07;4.60;;;;;;;;;;5013324;28;20591;-86
2022/03/07 03:19:19;;;;;;;5.57;4.20;;;;;;;;;;5013182;28;20939;-86
2022/03/07 03:22:23;;;;;;;7.67;5.03;;;;;;;;;;5020108;28;20627;-86
2022/03/07 03:25:28;;;;;;;6.83;4.80;;;;;;;;;;5043256;28;20943;-86
2022/03/07 03:28:32;;;;;;;8.67;5.00;;;;;;;;;;5044179;28;20879;-86
2022/03/07 03:31:36;;;;;;;7.73;4.80;;;;;;;;;;5021510;28;20539;-86
2022/03/07 03:34:40;;;;;;;5.17;4.23;;;;;;;;;;5043205;28;20626;-86
2022/03/07 03:37:44;;;;;;;7.13;5.10;;;;;;;;;;5032014;28;20646;-86
2022/03/07 03:40:48;;;;;;;8.03;5.00;;;;;;;;;;5032427;28;20934;-86
2022/03/07 03:43:53;;;;;;;6.07;4.73;;;;;;;;;;5032163;28;20531;-86
2022/03/07 03:46:57;;;;;;;6.60;4.67;;;;;;;;;;5032151;28;20645;-86
2022/03/07 03:50:03;;;;;;;8.60;4.93;;;;;;;;;;5042696;28;20598;-86
2022/03/07 03:53:07;;;;;;;6.83;4.90;;;;;;;;;;5032042;28;20531;-86
2022/03/07 03:56:11;;;;;;;8.27;4.60;;;;;;;;;;5001243;28;20544;-86
2022/03/07 03:59:16;;;;;;;6.97;5.17;;;;;;;;;;5001382;28;20540;-84
2022/03/07 04:02:20;;;;;;;7.97;5.50;;;;;;;;;;5005465;28;20662;-86
2022/03/07 04:05:24;;;;;;;6.83;4.83;;;;;;;;;;5037007;28;20590;-86
2022/03/07 04:08:28;;;;;;;6.03;4.83;;;;;;;;;;5020769;28;20539;-86
2022/03/07 04:11:32;;;;;;;7.13;4.87;;;;;;;;;;5031823;28;21152;-86
2022/03/07 04:14:36;;;;;;;8.13;5.40;;;;;;;;;;5032522;28;20595;-86
2022/03/07 04:17:41;;;;;;;7.57;4.67;;;;;;;;;;5033095;28;20622;-85
2022/03/07 04:20:45;;;;;;;11.63;5.53;;;;;;;;;;5031999;28;21155;-86
2022/03/07 04:23:49;;;;;;;8.80;5.60;;;;;;;;;;5020486;28;20560;-86
2022/03/07 04:26:54;;;;;;;28.40;12.87;;;;;;;;;;5031638;28;20645;-86
2022/03/07 04:29:58;;;;;;;10.97;5.80;;;;;;;;;;5032911;28;20929;-85
2022/03/07 04:33:02;;;;;;;8.07;5.53;;;;;;;;;;5033396;28;20606;-85
2022/03/07 04:36:06;;;;;;;8.23;5.30;;;;;;;;;;5023166;28;20595;-86
2022/03/07 04:39:11;;;;;;;8.10;5.20;;;;;;;;;;5016870;28;20590;-86
2022/03/07 04:42:15;;;;;;;9.27;5.23;;;;;;;;;;5031170;28;20646;-86
2022/03/07 04:45:19;;;;;;;7.53;5.77;;;;;;;;;;5020669;28;20578;-85
2022/03/07 04:48:23;;;;;;;7.70;5.67;;;;;;;;;;5032683;28;20606;-86
2022/03/07 04:51:27;;;;;;;7.33;5.40;;;;;;;;;;5021016;28;20582;-86
2022/03/07 04:54:31;;;;;;;6.70;5.10;;;;;;;;;;5033740;28;20915;-85
2022/03/07 04:57:36;;;;;;;7.13;5.37;;;;;;;;;;5031485;28;20649;-84
2022/03/07 05:00:40;;;;;;;8.23;5.37;;;;;;;;;;5018938;28;20679;-84
2022/03/07 05:03:43;;;;;;;9.73;5.60;;;;;;;;;;5020489;28;20547;-84
2022/03/07 05:06:48;;;;;;;7.73;5.03;;;;;;;;;;5021724;28;20626;-84
2022/03/07 05:09:52;;;;;;;8.33;6.23;;;;;;;;;;5023496;28;20535;-83
2022/03/07 05:12:56;;;;;;;8.70;6.40;;;;;;;;;;5031744;28;20527;-84
2022/03/07 05:16:01;;;;;;;8.67;6.20;;;;;;;;;;5031933;28;20606;-84
2022/03/07 05:19:05;;;;;;;9.07;6.27;;;;;;;;;;5031782;28;20610;-84
2022/03/07 05:22:09;;;;;;;10.23;5.67;;;;;;;;;;5023020;28;20599;-85
2022/03/07 05:25:15;;;;;;;9.73;6.30;;;;;;;;;;5020092;28;20591;-85
2022/03/07 05:28:19;;;;;;;10.23;5.97;;;;;;;;;;5032244;28;20587;-86
2022/03/07 05:31:23;;;;;;;9.40;6.03;;;;;;;;;;5031512;28;20583;-85
2022/03/07 05:34:27;;;;;;;8.83;6.57;;;;;;;;;;5036012;28;20598;-84
2022/03/07 05:37:32;;;;;;;11.33;6.53;;;;;;;;;;5034389;28;20970;-86
2022/03/07 05:40:37;;;;;;;11.33;6.47;;;;;;;;;;5021631;28;20630;-85
2022/03/07 05:43:41;;;;;;;13.47;8.20;;;;;;;;;;5021274;28;20622;-85
2022/03/07 05:46:45;;;;;;;14.63;9.30;;;;;;;;;;5020405;28;20638;-86
2022/03/07 05:49:49;;;;;;;12.80;8.27;;;;;;;;;;5035141;28;20594;-84
2022/03/07 05:52:53;;;;;;;11.07;7.17;;;;;;;;;;5033615;28;20523;-86
2022/03/07 05:55:58;;;;;;;12.20;7.33;;;;;;;;;;5031014;28;20618;-85
2022/03/07 05:59:03;;;;;;;10.20;7.10;;;;;;;;;;5030901;28;20610;-85
2022/03/07 06:02:32;;;;;;;12.33;7.40;;;;;;;;;;5034953;28;20730;-86
2022/03/07 06:05:36;;;;;;;14.03;8.73;;;;;;;;;;5054190;28;20594;-86
2022/03/07 06:08:40;;;;;;;15.03;9.53;;;;;;;;;;5020629;28;20578;-86
2022/03/07 06:11:44;;;;;;;18.17;11.83;;;;;;;;;;5030554;28;20552;-86
2022/03/07 06:14:48;;;;;;;12.80;8.83;;;;;;;;;;5035193;28;20550;-85
2022/03/07 06:17:58;;;;;;;14.47;9.03;;;;;;;;;;5020670;28;20643;-86
2022/03/07 06:21:02;;;;;;;14.07;9.50;;;;;;;;;;5025228;28;20595;-87
2022/03/07 06:24:06;;;;;;;13.80;9.20;;;;;;;;;;5033384;28;20950;-86
2022/03/07 06:27:10;;;;;;;16.30;9.73;;;;;;;;;;5035876;28;20645;-86
2022/03/07 06:30:14;;;;;;;15.23;9.17;;;;;;;;;;5033294;28;20610;-87
2022/03/07 06:33:18;;;;;;;13.87;9.73;;;;;;;;;;5022454;28;20974;-87
2022/03/07 06:36:22;;;;;;;14.10;8.87;;;;;;;;;;5033165;28;20635;-86
2022/03/07 06:39:27;;;;;;;14.73;9.83;;;;;;;;;;5022906;28;20611;-86
2022/03/07 06:42:31;;;;;;;15.43;9.40;;;;;;;;;;5029517;28;20609;-86
2022/03/07 06:45:35;;;;;;;17.83;10.13;;;;;;;;;;5024160;28;20602;-85
2022/03/07 06:48:40;;;;;;;14.23;10.37;;;;;;;;;;4929786;23;1532818;-89
2022/03/07 06:51:44;;;;;;;18.93;10.17;;;;;;;;;;4931823;29;20203;-88
2022/03/07 06:54:49;;;;;;;14.47;10.23;;;;;;;;;;4925006;29;20620;-89
2022/03/07 06:57:53;;;;;;;18.07;10.87;;;;;;;;;;4935510;29;20630;-88
2022/03/07 07:00:57;;;;;;;16.20;11.03;;;;;;;;;;4927439;29;20599;-89
2022/03/07 07:04:02;;;;;;;17.77;11.00;;;;;;;;;;4928091;29;20674;-88
2022/03/07 07:07:06;;;;;;;18.47;10.97;;;;;;;;;;4913752;29;20631;-88
2022/03/07 07:10:11;;;;;;;18.60;11.47;;;;;;;;;;4924596;29;20551;-89
2022/03/07 07:13:16;;;;;;;17.50;11.33;;;;;;;;;;4943488;29;20597;-89
2022/03/07 07:16:19;;;;;;;18.93;12.80;;;;;;;;;;4913372;29;20618;-88
2022/03/07 07:19:24;;;;;;;17.60;12.47;;;;;;;;;;4949733;28;20641;-88
2022/03/07 07:22:28;;;;;;;18.53;12.63;;;;;;;;;;4924727;29;20667;-89
2022/03/07 07:25:32;;;;;;;19.73;13.00;;;;;;;;;;4924439;29;20551;-89
2022/03/07 07:28:37;;;;;;;20.27;12.80;;;;;;;;;;4913297;29;20635;-89
2022/03/07 07:31:40;;;;;;;19.60;12.50;;;;;;;;;;4946716;29;20582;-88
2022/03/07 07:34:44;;;;;;;22.77;13.27;;;;;;;;;;4943362;29;20634;-89
2022/03/07 07:37:49;;;;;;;18.77;12.80;;;;;;;;;;4954883;28;20666;-89
2022/03/07 07:40:55;;;;;;;28.37;14.17;;;;;;;;;;4925679;29;20611;-89
2022/03/07 07:43:59;;;;;;;21.40;12.73;;;;;;;;;;4913191;29;20607;-88
2022/03/07 07:47:03;;;;;;;18.30;13.57;;;;;;;;;;4923808;28;20670;-88
2022/03/07 07:50:08;;;;;;;17.80;11.77;;;;;;;;;;4923433;29;20967;-88
2022/03/07 07:53:12;;;;;;;18.93;12.87;;;;;;;;;;4932473;29;20551;-89
2022/03/07 07:56:16;;;;;;;17.87;13.80;;;;;;;;;;4941829;29;20590;-88
2022/03/07 07:59:21;;;;;;;20.23;13.07;;;;;;;;;;4942048;29;20562;-89
2022/03/07 08:02:25;;;;;;;20.13;13.20;;;;;;;;;;4919005;29;21006;-88
2022/03/07 08:05:29;;;;;;;23.30;13.40;;;;;;;;;;4942929;29;20551;-87
2022/03/07 08:08:33;;;;;;;19.23;13.37;;;;;;;;;;4941187;29;20646;-87
2022/03/07 08:11:37;;;;;;;18.73;13.63;;;;;;;;;;4923760;29;20547;-88
2022/03/07 08:14:41;;;;;;;21.73;13.40;;;;;;;;;;4938530;29;20969;-88
2022/03/07 08:17:52;;;;;;;21.43;14.77;;;;;;;;;;4926562;29;21049;-88
2022/03/07 08:20:59;;;;;;;21.53;14.40;;;;;;;;;;4939601;29;20599;-88
2022/03/07 08:24:04;;;;;;;23.10;13.93;;;;;;;;;;4927846;29;20639;-88
2022/03/07 08:27:08;;;;;;;20.20;13.83;;;;;;;;;;4962710;28;20658;-88
2022/03/07 08:30:14;;;;;;;19.47;13.80;;;;;;;;;;4915811;29;20611;-88
2022/03/07 08:33:18;;;;;;;18.57;13.73;;;;;;;;;;4923571;29;20543;-87
2022/03/07 08:36:22;;;;;;;23.60;13.57;;;;;;;;;;4937045;29;20581;-87
2022/03/07 08:39:27;;;;;;;22.17;14.30;;;;;;;;;;4917462;29;21156;-87
2022/03/07 08:42:31;;;;;;;22.80;14.17;;;;;;;;;;4936717;29;20634;-87
2022/03/07 08:45:35;;;;;;;20.20;13.97;;;;;;;;;;4934062;28;21160;-88
2022/03/07 08:48:39;;;;;;;21.23;13.93;;;;;;;;;;4936720;28;20657;-87
2022/03/07 08:51:46;;;;;;;24.67;14.37;;;;;;;;;;4942036;29;20559;-87
2022/03/07 08:54:50;;;;;;;23.40;14.47;;;;;;;;;;4942348;29;20543;-87
2022/03/07 08:57:54;;;;;;;20.93;14.17;;;;;;;;;;4941931;28;20650;-87
2022/03/07 09:00:58;;;;;;;20.73;14.10;;;;;;;;;;4937946;29;20587;-87
2022/03/07 09:04:03;;;;;;;21.73;14.00;;;;;;;;;;4922907;29;20607;-88
2022/03/07 09:07:07;;;;;;;23.37;15.00;;;;;;;;;;4922761;29;20635;-87
2022/03/07 09:10:11;;;;;;;21.70;14.30;;;;;;;;;;4923006;29;20560;-87
2022/03/07 09:13:15;;;;;;;20.50;13.73;;;;;;;;;;4933692;29;20548;-87
2022/03/07 09:16:20;;;;;;;20.90;14.03;;;;;;;;;;4922843;29;20548;-87
2022/03/07 09:19:24;;;;;;;21.40;14.30;;;;;;;;;;4922734;29;21116;-87
2022/03/07 09:22:29;;;;;;;23.37;14.37;;;;;;;;;;4923607;29;20548;-88
2022/03/07 09:25:33;;;;;;;20.00;14.13;;;;;;;;;;4922581;29;20547;-88
2022/03/07 09:28:37;;;;;;;21.13;14.07;;;;;;;;;;4922321;29;20620;-88
2022/03/07 09:31:41;;;;;;;19.47;14.33;;;;;;;;;;4925227;28;20552;-88
2022/03/07 09:34:45;;;;;;;19.97;13.30;;;;;;;;;;4930450;29;20595;-88
2022/03/07 09:37:50;;;;;;;23.70;13.97;;;;;;;;;;4941043;29;21003;-88
2022/03/07 09:40:55;;;;;;;21.87;13.47;;;;;;;;;;4930710;29;20571;-88
2022/03/07 09:43:59;;;;;;;28.10;16.00;;;;;;;;;;4939563;29;21207;-88
2022/03/07 09:47:04;;;;;;;26.30;14.70;;;;;;;;;;4921841;28;21249;-88
2022/03/07 09:50:10;;;;;;;20.30;14.17;;;;;;;;;;4925943;29;20588;-87
2022/03/07 09:53:16;;;;;;;22.10;14.83;;;;;;;;;;4922154;29;20553;-88
2022/03/07 09:56:20;;;;;;;24.43;15.00;;;;;;;;;;4922234;29;20548;-88
2022/03/07 09:59:24;;;;;;;20.03;14.83;;;;;;;;;;4911405;29;20540;-88
2022/03/07 10:02:28;;;;;;;21.00;14.47;;;;;;;;;;4917981;29;20575;-88
2022/03/07 10:05:34;;;;;;;20.27;13.87;;;;;;;;;;4941065;29;21085;-88
2022/03/07 10:08:38;;;;;;;39.20;14.70;;;;;;;;;;4941063;29;20959;-88
2022/03/07 10:11:53;;;;;;;22.17;14.60;;;;;;;;;;4923883;29;21165;-88
2022/03/07 10:14:57;;;;;;;31.30;14.40;;;;;;;;;;4925591;29;20592;-87
2022/03/07 10:18:01;;;;;;;20.87;13.10;;;;;;;;;;4921982;29;20635;-89
2022/03/07 10:21:05;;;;;;;19.47;12.50;;;;;;;;;;4921602;29;20614;-89
2022/03/07 10:24:09;;;;;;;18.50;13.47;;;;;;;;;;4921772;28;20659;-89
2022/03/07 10:27:27;;;;;;;22.80;12.83;;;;;;;;;;4921560;29;20631;-89
2022/03/07 10:30:33;;;;;;;20.73;13.93;;;;;;;;;;4911117;29;21070;-89
2022/03/07 10:33:37;;;;;;;20.37;14.20;;;;;;;;;;4910742;29;20608;-88
2022/03/07 10:36:43;;;;;;;25.67;15.10;;;;;;;;;;4910943;29;20549;-89
2022/03/07 10:39:54;;;;;;;21.67;14.13;;;;;;;;;;4921760;29;20548;-89
2022/03/07 10:43:00;;;;;;;24.10;14.73;;;;;;;;;;4932273;28;20651;-88
2022/03/07 10:46:04;;;;;;;21.80;14.60;;;;;;;;;;4932554;28;20655;-89
2022/03/07 10:49:12;;;;;;;21.40;14.17;;;;;;;;;;4921564;29;20545;-88
2022/03/07 10:52:17;;;;;;;20.00;14.17;;;;;;;;;;4933312;29;20544;-89
2022/03/07 10:55:27;;;;;;;20.13;13.37;;;;;;;;;;4910701;28;20600;-89
2022/03/07 10:58:31;;;;;;;24.47;14.90;;;;;;;;;;4912412;29;20620;-89
2022/03/07 11:01:35;;;;;;;21.53;15.00;;;;;;;;;;4924706;28;21168;-89
2022/03/07 11:04:41;;;;;;;22.13;14.20;;;;;;;;;;4924361;28;21236;-89
2022/03/07 11:07:49;;;;;;;19.30;13.70;;;;;;;;;;4935542;29;21192;-88
2022/03/07 11:10:56;;;;;;;19.33;13.43;;;;;;;;;;4924764;29;20560;-89
2022/03/07 11:14:00;;;;;;;18.30;12.73;;;;;;;;;;4924672;29;20545;-89
2022/03/07 11:17:07;;;;;;;18.60;13.87;;;;;;;;;;4924388;29;20978;-89
2022/03/07 11:20:14;;;;;;;21.47;13.60;;;;;;;;;;4924614;29;20565;-89
2022/03/07 11:23:20;;;;;;;19.17;13.53;;;;;;;;;;4924504;29;20924;-88
2022/03/07 11:26:26;;;;;;;19.57;13.83;;;;;;;;;;4924355;29;20552;-89
2022/03/07 11:29:37;;;;;;;20.20;14.43;;;;;;;;;;4924442;29;20541;-89
2022/03/07 11:32:41;;;;;;;19.50;13.60;;;;;;;;;;4924372;29;20552;-89
2022/03/07 11:35:55;;;;;;;21.23;13.20;;;;;;;;;;4924055;28;20592;-89
2022/03/07 11:39:02;;;;;;;20.47;13.60;;;;;;;;;;4924249;29;20562;-89
2022/03/07 11:42:08;;;;;;;19.53;13.30;;;;;;;;;;4913223;29;20552;-89
2022/03/07 11:45:18;;;;;;;17.13;12.27;;;;;;;;;;4924430;29;20597;-89
2022/03/07 11:48:23;;;;;;;17.60;12.33;;;;;;;;;;4923646;28;20644;-88
2022/03/07 11:51:29;;;;;;;18.67;13.00;;;;;;;;;;4934778;28;20604;-88
2022/03/07 11:54:48;;;;;;;18.27;13.07;;;;;;;;;;4935768;28;20600;-88
2022/03/07 11:58:05;;;;;;;15.87;12.23;;;;;;;;;;4941087;29;20662;-88
2022/03/07 12:01:11;;;;;;;17.33;11.73;;;;;;;;;;4936411;29;20604;-87
2022/03/07 12:04:16;;;;;;;13.63;10.20;;;;;;;;;;4949059;29;20638;-88
2022/03/07 12:07:26;;;;;;;14.73;11.13;;;;;;;;;;4926279;29;20635;-88
2022/03/07 12:10:30;;;;;;;16.83;11.33;;;;;;;;;;4936715;29;21131;-88
2022/03/07 12:13:46;;;;;;;17.03;11.70;;;;;;;;;;4929946;29;20611;-88
2022/03/07 12:16:50;;;;;;;14.80;10.70;;;;;;;;;;4928056;29;20651;-88
2022/03/07 12:19:57;;;;;;;15.73;11.43;;;;;;;;;;4927234;29;20955;-88
2022/03/07 12:23:01;;;;;;;17.27;11.40;;;;;;;;;;4930926;29;20945;-88
2022/03/07 12:26:09;;;;;;;14.93;11.23;;;;;;;;;;4915914;29;20586;-88
2022/03/07 12:29:18;;;;;;;13.87;10.80;;;;;;;;;;4923463;29;21087;-87
2022/03/07 12:32:22;;;;;;;16.57;12.00;;;;;;;;;;4923676;29;21142;-88
2022/03/07 12:35:26;;;;;;;15.37;12.10;;;;;;;;;;4923321;29;20592;-88
2022/03/07 12:38:30;;;;;;;17.67;11.63;;;;;;;;;;4947956;29;20642;-88
2022/03/07 12:41:36;;;;;;;16.17;11.93;;;;;;;;;;4931620;29;20556;-88
2022/03/07 12:44:41;;;;;;;15.90;11.57;;;;;;;;;;4940149;29;20619;-88
2022/03/07 12:47:45;;;;;;;15.30;11.50;;;;;;;;;;4975394;23;20690;-88
2022/03/07 12:50:49;;;;;;;13.63;10.53;;;;;;;;;;4974492;28;20610;-88
2022/03/07 12:53:56;;;;;;;15.43;12.00;;;;;;;;;;4952900;29;20192;-88
2022/03/07 12:57:01;;;;;;;16.10;11.97;;;;;;;;;;4949222;28;20191;-87
2022/03/07 13:00:07;;;;;;;18.33;12.37;;;;;;;;;;5054227;28;20188;-87
2022/03/07 13:03:11;;;;;;;17.30;12.50;;;;;;;;;;5019714;28;20618;-87
2022/03/07 13:06:17;;;;;;;16.17;12.70;;;;;;;;;;5019746;28;20188;-87
2022/03/07 13:09:32;;;;;;;16.47;12.13;;;;;;;;;;5020947;28;20543;-87
2022/03/07 13:12:37;;;;;;;16.27;12.07;;;;;;;;;;5011420;28;20200;-87
2022/03/07 13:15:42;;;;;;;15.53;11.93;;;;;;;;;;5012244;28;20173;-87
2022/03/07 13:19:06;;;;;;;15.70;12.50;;;;;;;;;;5012025;28;20212;-87
2022/03/07 13:22:11;;;;;;;15.80;12.33;;;;;;;;;;5001470;28;20636;-88
2022/03/07 13:25:15;;;;;;;17.30;12.87;;;;;;;;;;5022190;28;20208;-88
2022/03/07 13:28:28;;;;;;;16.97;12.27;;;;;;;;;;5039419;28;20220;-88
2022/03/07 13:31:44;;;;;;;16.07;12.83;;;;;;;;;;5030334;28;20188;-88
2022/03/07 13:34:50;;;;;;;15.87;12.37;;;;;;;;;;5031180;28;20673;-88
2022/03/07 13:37:55;;;;;;;15.83;12.87;;;;;;;;;;5030515;28;20614;-88
2022/03/07 13:41:09;;;;;;;17.07;12.50;;;;;;;;;;5030322;28;20543;-88
2022/03/07 13:44:13;;;;;;;14.37;11.60;;;;;;;;;;5019178;28;20203;-88
2022/03/07 13:47:21;;;;;;;16.43;12.60;;;;;;;;;;5030233;28;20215;-88
2022/03/07 13:50:26;;;;;;;17.50;13.90;;;;;;;;;;5030443;28;20184;-88
2022/03/07 13:53:31;;;;;;;18.87;14.13;;;;;;;;;;5019298;28;20205;-88
2022/03/07 13:56:36;;;;;;;17.13;13.77;;;;;;;;;;5030547;28;20172;-88
2022/03/07 13:59:51;;;;;;;17.87;13.03;;;;;;;;;;5030453;28;20181;-88
2022/03/07 14:03:00;;;;;;;16.27;13.13;;;;;;;;;;5041686;28;20543;-87
2022/03/07 14:06:08;;;;;;;17.67;13.70;;;;;;;;;;5018977;28;20559;-88
2022/03/07 14:09:13;;;;;;;18.00;13.90;;;;;;;;;;5030251;28;20614;-88
2022/03/07 14:12:32;;;;;;;15.77;13.03;;;;;;;;;;5018713;28;20551;-88
2022/03/07 14:15:40;;;;;;;17.27;12.87;;;;;;;;;;5030585;28;20536;-88
2022/03/07 14:18:47;;;;;;;17.27;13.37;;;;;;;;;;5018440;28;20974;-88
2022/03/07 14:21:51;;;;;;;18.73;14.07;;;;;;;;;;5018669;28;20176;-88
2022/03/07 14:24:57;;;;;;;20.03;13.67;;;;;;;;;;5029612;28;20986;-88
2022/03/07 14:28:01;;;;;;;18.50;14.10;;;;;;;;;;5018424;28;21188;-88
2022/03/07 14:31:05;;;;;;;18.83;14.20;;;;;;;;;;5040326;28;20594;-88
2022/03/07 14:34:10;;;;;;;19.57;13.60;;;;;;;;;;5032030;28;20575;-88
2022/03/07 14:37:14;;;;;;;19.43;14.20;;;;;;;;;;5021804;28;20646;-88
2022/03/07 14:40:19;;;;;;;16.97;12.80;;;;;;;;;;5033482;28;20618;-88
2022/03/07 14:43:25;;;;;;;18.30;13.17;;;;;;;;;;5022369;28;21136;-88
2022/03/07 14:46:29;;;;;;;24.13;13.10;;;;;;;;;;5033023;28;20583;-88
2022/03/07 14:49:36;;;;;;;18.77;11.10;;;;;;;;;;5016934;28;20591;-88
2022/03/07 14:52:41;;;;;;;19.17;13.60;;;;;;;;;;5029420;28;20586;-87
2022/03/07 14:55:46;;;;;;;15.83;11.30;;;;;;;;;;5032994;28;21181;-88
2022/03/07 14:58:50;;;;;;;17.47;12.40;;;;;;;;;;5020705;28;21342;-87
2022/03/07 15:01:54;;;;;;;16.07;11.77;;;;;;;;;;5034366;28;20606;-87
2022/03/07 15:05:03;;;;;;;18.83;13.17;;;;;;;;;;5022461;28;20607;-90
2022/03/07 15:08:07;;;;;;;16.70;12.73;;;;;;;;;;5021951;28;20651;-87
2022/03/07 15:11:11;;;;;;;17.73;12.37;;;;;;;;;;5033355;28;20906;-87
2022/03/07 15:14:18;;;;;;;17.27;11.87;;;;;;;;;;5033426;28;20598;-87
2022/03/07 15:17:23;;;;;;;17.73;12.23;;;;;;;;;;5033342;28;20614;-88
2022/03/07 15:20:27;;;;;;;16.63;11.80;;;;;;;;;;5034139;28;21180;-85
2022/03/07 15:23:32;;;;;;;19.03;12.47;;;;;;;;;;5036903;28;20586;-86
2022/03/07 15:26:36;;;;;;;17.07;12.20;;;;;;;;;;5029643;28;20590;-87
2022/03/07 15:29:41;;;;;;;13.83;10.03;;;;;;;;;;5029955;28;20575;-86
2022/03/07 15:32:45;;;;;;;15.83;10.33;;;;;;;;;;5039344;28;20547;-87
2022/03/07 15:35:50;;;;;;;14.33;10.23;;;;;;;;;;5018791;28;20641;-88
2022/03/07 15:38:56;;;;;;;19.23;11.07;;;;;;;;;;5034929;28;20970;-87
2022/03/07 15:42:00;;;;;;;15.23;10.47;;;;;;;;;;5033998;28;20568;-88
2022/03/07 15:45:05;;;;;;;13.43;9.67;;;;;;;;;;5021982;28;20974;-87
2022/03/07 15:48:09;;;;;;;13.50;8.93;;;;;;;;;;5042967;28;20654;-87
2022/03/07 15:51:14;;;;;;;13.97;9.80;;;;;;;;;;5044286;28;20551;-87
2022/03/07 15:54:19;;;;;;;13.17;9.23;;;;;;;;;;5056118;28;20593;-87
2022/03/07 15:57:24;;;;;;;13.90;8.67;;;;;;;;;;5042529;28;20625;-87
2022/03/07 16:00:28;;;;;;;13.67;9.33;;;;;;;;;;5053870;28;20546;-87
2022/03/07 16:03:33;;;;;;;14.43;9.67;;;;;;;;;;5047923;28;20934;-88
2022/03/07 16:07:36;;;;;;;14.23;9.90;;;;;;;;;;5032445;28;20638;-88
2022/03/07 16:10:42;;;;;;;17.77;9.00;;;;;;;;;;5015822;28;20951;-88
2022/03/07 16:13:46;;;;;;;16.20;10.50;;;;;;;;;;5021267;28;20543;-89
2022/03/07 16:16:55;;;;;;;11.40;8.87;;;;;;;;;;5016617;28;20574;-88
2022/03/07 16:20:00;;;;;;;12.00;8.90;;;;;;;;;;5019774;28;20599;-88
2022/03/07 16:23:05;;;;;;;14.80;8.87;;;;;;;;;;5020201;28;20622;-89
2022/03/07 16:26:09;;;;;;;11.07;8.47;;;;;;;;;;5019988;28;20658;-90
2022/03/07 16:29:13;;;;;;;13.13;7.80;;;;;;;;;;5019908;28;20638;-90
2022/03/07 16:32:17;;;;;;;11.43;8.27;;;;;;;;;;5030648;28;20590;-88
2022/03/07 16:35:21;;;;;;;17.57;8.17;;;;;;;;;;5020091;28;20934;-88
2022/03/07 16:38:25;;;;;;;16.13;7.77;;;;;;;;;;5019984;28;21223;-88
2022/03/07 16:41:31;;;;;;;12.73;8.27;;;;;;;;;;5030801;28;20591;-89
2022/03/07 16:44:35;;;;;;;20.67;8.97;;;;;;;;;;5035277;28;20536;-88
2022/03/07 16:47:40;;;;;;;14.47;9.50;;;;;;;;;;5041493;28;20661;-88
2022/03/07 16:50:45;;;;;;;12.90;9.20;;;;;;;;;;5020679;28;20599;-88
2022/03/07 16:53:51;;;;;;;15.13;9.53;;;;;;;;;;5031965;28;20551;-89
2022/03/07 16:56:55;;;;;;;10.87;8.87;;;;;;;;;;5030327;28;20590;-88
2022/03/07 16:59:59;;;;;;;11.77;7.73;;;;;;;;;;5042405;28;20602;-88
2022/03/07 17:03:04;;;;;;;17.07;9.60;;;;;;;;;;5031441;28;20539;-88
2022/03/07 17:06:08;;;;;;;16.67;7.87;;;;;;;;;;5030774;28;20602;-88
2022/03/07 17:09:13;;;;;;;11.30;7.77;;;;;;;;;;5019306;28;20638;-88
2022/03/07 17:12:18;;;;;;;13.40;8.00;;;;;;;;;;5031268;28;20985;-87
2022/03/07 17:15:22;;;;;;;12.40;8.30;;;;;;;;;;5031182;28;20598;-88
2022/03/07 17:18:28;;;;;;;19.93;7.93;;;;;;;;;;5019284;28;20625;-87
2022/03/07 17:21:33;;;;;;;15.03;8.20;;;;;;;;;;5018946;28;20582;-87
2022/03/07 17:24:37;;;;;;;19.00;9.03;;;;;;;;;;5030657;28;20591;-89
2022/03/07 17:27:42;;;;;;;11.33;8.67;;;;;;;;;;5030407;28;20638;-88
2022/03/07 17:30:50;;;;;;;16.00;10.03;;;;;;;;;;5030698;28;20594;-88
2022/03/07 17:33:54;;;;;;;15.90;10.07;;;;;;;;;;5030999;28;20550;-88
2022/03/07 17:36:59;;;;;;;12.10;7.90;;;;;;;;;;5041723;28;20542;-88
2022/03/07 17:40:06;;;;;;;10.33;7.50;;;;;;;;;;5018794;28;20594;-88
2022/03/07 17:43:10;;;;;;;9.80;6.87;;;;;;;;;;5027298;28;20575;-87
2022/03/07 17:46:17;;;;;;;13.83;7.37;;;;;;;;;;5018493;28;20615;-87
2022/03/07 17:49:21;;;;;;;9.50;7.10;;;;;;;;;;5030769;28;20614;-87
2022/03/07 17:52:25;;;;;;;10.40;7.33;;;;;;;;;;5020337;28;21081;-87
2022/03/07 17:55:29;;;;;;;11.27;7.77;;;;;;;;;;5020340;28;20536;-87
2022/03/07 17:58:33;;;;;;;11.47;7.47;;;;;;;;;;5019915;28;20642;-87
2022/03/07 18:01:42;;;;;;;10.13;7.60;;;;;;;;;;5010155;28;20571;-87
2022/03/07 18:04:46;;;;;;;10.67;6.80;;;;;;;;;;5031478;28;20575;-87
2022/03/07 18:07:50;;;;;;;10.33;7.10;;;;;;;;;;5019707;28;20619;-87
2022/03/07 18:10:54;;;;;;;9.67;7.23;;;;;;;;;;5001283;28;20532;-87